sensor_id;sensor_type;location;lat;lon;timestamp;P1;durP1;ratioP1;P2;durP2;ratioP2
80193;SDS011;69515;42.072;21.504;2024-02-23T00:00:34;6.57;;;4.15;;
80193;SDS011;69515;42.072;21.504;2024-02-23T00:03:00;6.57;;;3.90;;
80193;SDS011;69515;42.072;21.504;2024-02-23T00:05:27;5.88;;;3.25;;
80193;SDS011;69515;42.072;21.504;2024-02-23T00:10:19;6.22;;;3.72;;
80193;SDS011;69515;42.072;21.504;2024-02-23T00:12:45;5.75;;;3.45;;
80193;SDS011;69515;42.072;21.504;2024-02-23T00:15:12;7.22;;;4.10;;
80193;SDS011;69515;42.072;21.504;2024-02-23T00:20:08;8.57;;;3.92;;
80193;SDS011;69515;42.072;21.504;2024-02-23T00:22:40;6.38;;;3.10;;
80193;SDS011;69515;42.072;21.504;2024-02-23T00:25:06;6.72;;;3.40;;
80193;SDS011;69515;42.072;21.504;2024-02-23T00:27:32;6.35;;;3.45;;
80193;SDS011;69515;42.072;21.504;2024-02-23T00:32:25;19.67;;;3.40;;
80193;SDS011;69515;42.072;21.504;2024-02-23T00:37:17;7.18;;;4.13;;
80193;SDS011;69515;42.072;21.504;2024-02-23T00:39:43;8.05;;;4.30;;
80193;SDS011;69515;42.072;21.504;2024-02-23T00:42:09;7.03;;;3.80;;
80193;SDS011;69515;42.072;21.504;2024-02-23T00:44:36;7.97;;;3.80;;
80193;SDS011;69515;42.072;21.504;2024-02-23T00:47:02;6.65;;;3.78;;
80193;SDS011;69515;42.072;21.504;2024-02-23T00:49:29;7.15;;;3.85;;
80193;SDS011;69515;42.072;21.504;2024-02-23T00:51:55;7.35;;;3.70;;
80193;SDS011;69515;42.072;21.504;2024-02-23T00:56:47;7.30;;;3.60;;
80193;SDS011;69515;42.072;21.504;2024-02-23T00:59:13;7.65;;;3.92;;
80193;SDS011;69515;42.072;21.504;2024-02-23T01:01:39;6.07;;;3.35;;
80193;SDS011;69515;42.072;21.504;2024-02-23T01:04:06;6.82;;;3.42;;
80193;SDS011;69515;42.072;21.504;2024-02-23T01:08:58;7.80;;;3.92;;
80193;SDS011;69515;42.072;21.504;2024-02-23T01:13:50;14.65;;;4.40;;
80193;SDS011;69515;42.072;21.504;2024-02-23T01:16:16;7.07;;;3.95;;
80193;SDS011;69515;42.072;21.504;2024-02-23T01:18:43;7.00;;;4.03;;
80193;SDS011;69515;42.072;21.504;2024-02-23T01:21:09;6.47;;;4.07;;
80193;SDS011;69515;42.072;21.504;2024-02-23T01:23:35;6.55;;;3.85;;
80193;SDS011;69515;42.072;21.504;2024-02-23T01:26:01;6.68;;;3.35;;
80193;SDS011;69515;42.072;21.504;2024-02-23T01:28:27;7.00;;;3.80;;
80193;SDS011;69515;42.072;21.504;2024-02-23T01:33:25;6.93;;;3.63;;
80193;SDS011;69515;42.072;21.504;2024-02-23T01:35:51;6.43;;;3.58;;
80193;SDS011;69515;42.072;21.504;2024-02-23T01:38:18;7.07;;;4.22;;
80193;SDS011;69515;42.072;21.504;2024-02-23T01:40:46;7.95;;;3.53;;
80193;SDS011;69515;42.072;21.504;2024-02-23T01:43:13;13.07;;;3.40;;
80193;SDS011;69515;42.072;21.504;2024-02-23T01:45:39;7.68;;;3.30;;
80193;SDS011;69515;42.072;21.504;2024-02-23T01:48:05;6.38;;;3.70;;
80193;SDS011;69515;42.072;21.504;2024-02-23T01:50:32;10.98;;;3.50;;
80193;SDS011;69515;42.072;21.504;2024-02-23T01:55:24;6.45;;;3.45;;
80193;SDS011;69515;42.072;21.504;2024-02-23T01:57:50;6.60;;;4.03;;
80193;SDS011;69515;42.072;21.504;2024-02-23T02:02:43;7.53;;;4.22;;
80193;SDS011;69515;42.072;21.504;2024-02-23T02:05:10;6.07;;;3.60;;
80193;SDS011;69515;42.072;21.504;2024-02-23T02:07:36;6.70;;;3.45;;
80193;SDS011;69515;42.072;21.504;2024-02-23T02:10:04;5.90;;;3.15;;
80193;SDS011;69515;42.072;21.504;2024-02-23T02:12:31;6.15;;;3.47;;
80193;SDS011;69515;42.072;21.504;2024-02-23T02:14:57;6.90;;;3.80;;
80193;SDS011;69515;42.072;21.504;2024-02-23T02:17:26;7.15;;;3.80;;
80193;SDS011;69515;42.072;21.504;2024-02-23T02:19:53;6.85;;;3.45;;
80193;SDS011;69515;42.072;21.504;2024-02-23T02:22:19;6.40;;;3.08;;
80193;SDS011;69515;42.072;21.504;2024-02-23T02:24:45;6.25;;;3.33;;
80193;SDS011;69515;42.072;21.504;2024-02-23T02:27:13;7.97;;;3.78;;
80193;SDS011;69515;42.072;21.504;2024-02-23T02:29:39;6.75;;;3.53;;
80193;SDS011;69515;42.072;21.504;2024-02-23T02:34:32;12.90;;;4.35;;
80193;SDS011;69515;42.072;21.504;2024-02-23T02:36:58;8.73;;;4.80;;
80193;SDS011;69515;42.072;21.504;2024-02-23T02:39:24;7.80;;;4.10;;
80193;SDS011;69515;42.072;21.504;2024-02-23T02:41:50;8.35;;;3.97;;
80193;SDS011;69515;42.072;21.504;2024-02-23T02:44:17;8.38;;;4.03;;
80193;SDS011;69515;42.072;21.504;2024-02-23T02:46:43;7.75;;;4.40;;
80193;SDS011;69515;42.072;21.504;2024-02-23T02:49:11;7.95;;;3.83;;
80193;SDS011;69515;42.072;21.504;2024-02-23T02:54:04;7.75;;;3.85;;
80193;SDS011;69515;42.072;21.504;2024-02-23T02:58:56;7.13;;;3.55;;
80193;SDS011;69515;42.072;21.504;2024-02-23T03:01:22;7.18;;;3.60;;
80193;SDS011;69515;42.072;21.504;2024-02-23T03:06:14;7.15;;;3.67;;
80193;SDS011;69515;42.072;21.504;2024-02-23T03:08:42;6.97;;;3.80;;
80193;SDS011;69515;42.072;21.504;2024-02-23T03:11:08;6.68;;;3.72;;
80193;SDS011;69515;42.072;21.504;2024-02-23T03:13:34;7.03;;;3.78;;
80193;SDS011;69515;42.072;21.504;2024-02-23T03:16:00;6.32;;;3.80;;
80193;SDS011;69515;42.072;21.504;2024-02-23T03:18:26;6.00;;;3.40;;
80193;SDS011;69515;42.072;21.504;2024-02-23T03:20:53;6.95;;;3.67;;
80193;SDS011;69515;42.072;21.504;2024-02-23T03:23:20;8.23;;;3.95;;
80193;SDS011;69515;42.072;21.504;2024-02-23T03:25:46;6.07;;;3.25;;
80193;SDS011;69515;42.072;21.504;2024-02-23T03:28:12;6.70;;;3.63;;
80193;SDS011;69515;42.072;21.504;2024-02-23T03:30:38;7.30;;;4.38;;
80193;SDS011;69515;42.072;21.504;2024-02-23T03:33:05;6.13;;;3.33;;
80193;SDS011;69515;42.072;21.504;2024-02-23T03:35:31;8.98;;;4.03;;
80193;SDS011;69515;42.072;21.504;2024-02-23T03:37:57;9.55;;;4.13;;
80193;SDS011;69515;42.072;21.504;2024-02-23T03:40:24;7.85;;;3.88;;
80193;SDS011;69515;42.072;21.504;2024-02-23T03:42:50;6.43;;;3.33;;
80193;SDS011;69515;42.072;21.504;2024-02-23T03:45:16;7.85;;;3.50;;
80193;SDS011;69515;42.072;21.504;2024-02-23T03:47:43;6.03;;;3.47;;
80193;SDS011;69515;42.072;21.504;2024-02-23T03:50:09;8.57;;;3.78;;
80193;SDS011;69515;42.072;21.504;2024-02-23T03:52:35;6.88;;;3.40;;
80193;SDS011;69515;42.072;21.504;2024-02-23T03:55:01;6.88;;;3.38;;
80193;SDS011;69515;42.072;21.504;2024-02-23T03:57:29;5.72;;;3.10;;
80193;SDS011;69515;42.072;21.504;2024-02-23T03:59:55;7.18;;;3.85;;
80193;SDS011;69515;42.072;21.504;2024-02-23T04:02:21;7.10;;;4.05;;
80193;SDS011;69515;42.072;21.504;2024-02-23T04:04:48;6.65;;;3.88;;
80193;SDS011;69515;42.072;21.504;2024-02-23T04:07:14;6.28;;;3.58;;
80193;SDS011;69515;42.072;21.504;2024-02-23T04:09:40;7.43;;;3.50;;
80193;SDS011;69515;42.072;21.504;2024-02-23T04:12:06;7.53;;;3.47;;
80193;SDS011;69515;42.072;21.504;2024-02-23T04:14:33;6.93;;;3.97;;
80193;SDS011;69515;42.072;21.504;2024-02-23T04:17:03;7.07;;;3.67;;
80193;SDS011;69515;42.072;21.504;2024-02-23T04:19:29;6.57;;;3.33;;
80193;SDS011;69515;42.072;21.504;2024-02-23T04:21:55;5.57;;;3.10;;
80193;SDS011;69515;42.072;21.504;2024-02-23T04:24:21;6.03;;;3.03;;
80193;SDS011;69515;42.072;21.504;2024-02-23T04:29:13;6.38;;;3.15;;
80193;SDS011;69515;42.072;21.504;2024-02-23T04:34:06;7.53;;;3.75;;
80193;SDS011;69515;42.072;21.504;2024-02-23T04:36:32;6.40;;;3.55;;
80193;SDS011;69515;42.072;21.504;2024-02-23T04:41:24;9.30;;;4.00;;
80193;SDS011;69515;42.072;21.504;2024-02-23T04:43:50;6.38;;;3.75;;
80193;SDS011;69515;42.072;21.504;2024-02-23T04:46:18;6.15;;;3.35;;
80193;SDS011;69515;42.072;21.504;2024-02-23T04:51:10;7.00;;;3.67;;
80193;SDS011;69515;42.072;21.504;2024-02-23T04:56:03;6.43;;;3.40;;
80193;SDS011;69515;42.072;21.504;2024-02-23T04:58:30;6.38;;;3.50;;
80193;SDS011;69515;42.072;21.504;2024-02-23T05:00:56;8.48;;;4.38;;
80193;SDS011;69515;42.072;21.504;2024-02-23T05:03:23;8.75;;;4.25;;
80193;SDS011;69515;42.072;21.504;2024-02-23T05:05:49;6.28;;;4.07;;
80193;SDS011;69515;42.072;21.504;2024-02-23T05:08:19;6.63;;;4.13;;
80193;SDS011;69515;42.072;21.504;2024-02-23T05:10:48;8.75;;;4.40;;
80193;SDS011;69515;42.072;21.504;2024-02-23T05:13:14;6.63;;;3.53;;
80193;SDS011;69515;42.072;21.504;2024-02-23T05:15:40;7.05;;;3.70;;
80193;SDS011;69515;42.072;21.504;2024-02-23T05:18:06;6.80;;;3.88;;
80193;SDS011;69515;42.072;21.504;2024-02-23T05:20:32;7.22;;;3.45;;
80193;SDS011;69515;42.072;21.504;2024-02-23T05:25:25;6.35;;;3.13;;
80193;SDS011;69515;42.072;21.504;2024-02-23T05:27:52;6.70;;;3.60;;
80193;SDS011;69515;42.072;21.504;2024-02-23T05:30:18;6.47;;;3.20;;
80193;SDS011;69515;42.072;21.504;2024-02-23T05:32:44;6.80;;;3.78;;
80193;SDS011;69515;42.072;21.504;2024-02-23T05:35:12;6.40;;;3.35;;
80193;SDS011;69515;42.072;21.504;2024-02-23T05:40:04;7.00;;;3.72;;
80193;SDS011;69515;42.072;21.504;2024-02-23T05:42:37;6.53;;;3.63;;
80193;SDS011;69515;42.072;21.504;2024-02-23T05:45:04;6.78;;;3.38;;
80193;SDS011;69515;42.072;21.504;2024-02-23T05:47:34;6.03;;;3.72;;
80193;SDS011;69515;42.072;21.504;2024-02-23T05:50:01;8.35;;;4.65;;
80193;SDS011;69515;42.072;21.504;2024-02-23T05:52:28;8.00;;;4.22;;
80193;SDS011;69515;42.072;21.504;2024-02-23T05:54:54;7.45;;;4.28;;
80193;SDS011;69515;42.072;21.504;2024-02-23T05:57:21;8.70;;;4.88;;
80193;SDS011;69515;42.072;21.504;2024-02-23T05:59:47;9.65;;;4.80;;
80193;SDS011;69515;42.072;21.504;2024-02-23T06:04:40;10.95;;;6.20;;
80193;SDS011;69515;42.072;21.504;2024-02-23T06:07:06;9.57;;;5.40;;
80193;SDS011;69515;42.072;21.504;2024-02-23T06:09:32;11.77;;;6.95;;
80193;SDS011;69515;42.072;21.504;2024-02-23T06:14:25;16.02;;;9.18;;
80193;SDS011;69515;42.072;21.504;2024-02-23T06:16:51;14.85;;;8.02;;
80193;SDS011;69515;42.072;21.504;2024-02-23T06:21:47;13.10;;;8.07;;
80193;SDS011;69515;42.072;21.504;2024-02-23T06:24:14;14.93;;;8.85;;
80193;SDS011;69515;42.072;21.504;2024-02-23T06:29:06;13.68;;;7.97;;
80193;SDS011;69515;42.072;21.504;2024-02-23T06:31:36;14.98;;;8.68;;
80193;SDS011;69515;42.072;21.504;2024-02-23T06:34:03;12.70;;;7.32;;
80193;SDS011;69515;42.072;21.504;2024-02-23T06:36:29;15.55;;;8.35;;
80193;SDS011;69515;42.072;21.504;2024-02-23T06:38:56;13.77;;;8.30;;
80193;SDS011;69515;42.072;21.504;2024-02-23T06:41:23;15.07;;;8.35;;
80193;SDS011;69515;42.072;21.504;2024-02-23T06:43:49;13.35;;;7.93;;
80193;SDS011;69515;42.072;21.504;2024-02-23T06:46:18;16.50;;;8.27;;
80193;SDS011;69515;42.072;21.504;2024-02-23T06:48:47;16.48;;;8.75;;
80193;SDS011;69515;42.072;21.504;2024-02-23T06:51:14;16.67;;;9.30;;
80193;SDS011;69515;42.072;21.504;2024-02-23T06:53:41;12.48;;;8.05;;
80193;SDS011;69515;42.072;21.504;2024-02-23T06:56:08;12.38;;;7.80;;
80193;SDS011;69515;42.072;21.504;2024-02-23T06:58:34;14.75;;;7.97;;
80193;SDS011;69515;42.072;21.504;2024-02-23T07:01:01;13.50;;;8.90;;
80193;SDS011;69515;42.072;21.504;2024-02-23T07:03:33;27.88;;;9.35;;
80193;SDS011;69515;42.072;21.504;2024-02-23T07:06:01;22.02;;;8.77;;
80193;SDS011;69515;42.072;21.504;2024-02-23T07:08:28;16.33;;;9.30;;
80193;SDS011;69515;42.072;21.504;2024-02-23T07:10:55;16.48;;;8.60;;
80193;SDS011;69515;42.072;21.504;2024-02-23T07:13:22;21.73;;;7.85;;
80193;SDS011;69515;42.072;21.504;2024-02-23T07:15:51;16.17;;;7.47;;
80193;SDS011;69515;42.072;21.504;2024-02-23T07:18:18;16.58;;;7.78;;
80193;SDS011;69515;42.072;21.504;2024-02-23T07:20:44;16.75;;;9.02;;
80193;SDS011;69515;42.072;21.504;2024-02-23T07:23:10;15.23;;;8.95;;
80193;SDS011;69515;42.072;21.504;2024-02-23T07:25:36;13.75;;;8.02;;
80193;SDS011;69515;42.072;21.504;2024-02-23T07:28:03;12.82;;;7.85;;
80193;SDS011;69515;42.072;21.504;2024-02-23T07:30:29;17.10;;;9.00;;
80193;SDS011;69515;42.072;21.504;2024-02-23T07:32:55;13.38;;;8.07;;
80193;SDS011;69515;42.072;21.504;2024-02-23T07:35:22;13.98;;;8.18;;
80193;SDS011;69515;42.072;21.504;2024-02-23T07:37:49;26.85;;;8.68;;
80193;SDS011;69515;42.072;21.504;2024-02-23T07:40:15;20.38;;;8.70;;
80193;SDS011;69515;42.072;21.504;2024-02-23T07:42:41;10.63;;;7.32;;
80193;SDS011;69515;42.072;21.504;2024-02-23T07:45:09;21.48;;;8.32;;
80193;SDS011;69515;42.072;21.504;2024-02-23T07:47:37;15.10;;;8.93;;
80193;SDS011;69515;42.072;21.504;2024-02-23T07:50:04;12.38;;;7.90;;
80193;SDS011;69515;42.072;21.504;2024-02-23T07:52:34;17.38;;;7.90;;
80193;SDS011;69515;42.072;21.504;2024-02-23T07:55:01;12.43;;;8.00;;
80193;SDS011;69515;42.072;21.504;2024-02-23T07:57:30;14.73;;;7.57;;
80193;SDS011;69515;42.072;21.504;2024-02-23T08:00:04;12.85;;;7.80;;
80193;SDS011;69515;42.072;21.504;2024-02-23T08:02:35;14.30;;;7.68;;
80193;SDS011;69515;42.072;21.504;2024-02-23T08:05:02;12.27;;;7.45;;
80193;SDS011;69515;42.072;21.504;2024-02-23T08:07:29;12.27;;;7.35;;
80193;SDS011;69515;42.072;21.504;2024-02-23T08:09:56;12.57;;;7.75;;
80193;SDS011;69515;42.072;21.504;2024-02-23T08:12:22;12.13;;;7.53;;
80193;SDS011;69515;42.072;21.504;2024-02-23T08:14:49;14.10;;;8.73;;
80193;SDS011;69515;42.072;21.504;2024-02-23T08:17:18;12.95;;;8.43;;
80193;SDS011;69515;42.072;21.504;2024-02-23T08:19:45;12.65;;;8.10;;
80193;SDS011;69515;42.072;21.504;2024-02-23T08:22:12;10.43;;;7.13;;
80193;SDS011;69515;42.072;21.504;2024-02-23T08:24:38;13.50;;;8.90;;
80193;SDS011;69515;42.072;21.504;2024-02-23T08:27:04;12.15;;;7.95;;
80193;SDS011;69515;42.072;21.504;2024-02-23T08:29:31;12.48;;;6.93;;
80193;SDS011;69515;42.072;21.504;2024-02-23T08:31:57;13.32;;;7.05;;
80193;SDS011;69515;42.072;21.504;2024-02-23T08:34:25;13.77;;;9.88;;
80193;SDS011;69515;42.072;21.504;2024-02-23T08:36:51;13.52;;;7.95;;
80193;SDS011;69515;42.072;21.504;2024-02-23T08:39:18;14.30;;;9.77;;
80193;SDS011;69515;42.072;21.504;2024-02-23T08:41:47;15.57;;;9.60;;
80193;SDS011;69515;42.072;21.504;2024-02-23T08:44:13;12.50;;;8.68;;
80193;SDS011;69515;42.072;21.504;2024-02-23T08:46:40;13.90;;;9.18;;
80193;SDS011;69515;42.072;21.504;2024-02-23T08:49:06;14.20;;;8.82;;
80193;SDS011;69515;42.072;21.504;2024-02-23T08:51:32;19.05;;;11.95;;
80193;SDS011;69515;42.072;21.504;2024-02-23T08:53:58;12.45;;;7.25;;
80193;SDS011;69515;42.072;21.504;2024-02-23T08:56:29;15.88;;;8.75;;
80193;SDS011;69515;42.072;21.504;2024-02-23T08:58:57;13.63;;;8.75;;
80193;SDS011;69515;42.072;21.504;2024-02-23T09:01:23;11.85;;;7.22;;
80193;SDS011;69515;42.072;21.504;2024-02-23T09:03:49;19.38;;;11.48;;
80193;SDS011;69515;42.072;21.504;2024-02-23T09:06:16;16.17;;;10.38;;
80193;SDS011;69515;42.072;21.504;2024-02-23T09:08:42;16.90;;;8.65;;
80193;SDS011;69515;42.072;21.504;2024-02-23T09:11:08;10.20;;;7.03;;
80193;SDS011;69515;42.072;21.504;2024-02-23T09:13:36;9.25;;;5.63;;
80193;SDS011;69515;42.072;21.504;2024-02-23T09:16:02;12.25;;;7.57;;
80193;SDS011;69515;42.072;21.504;2024-02-23T09:18:29;17.70;;;9.90;;
80193;SDS011;69515;42.072;21.504;2024-02-23T09:20:55;14.52;;;7.30;;
80193;SDS011;69515;42.072;21.504;2024-02-23T09:23:21;15.60;;;8.30;;
80193;SDS011;69515;42.072;21.504;2024-02-23T09:25:48;13.68;;;7.68;;
80193;SDS011;69515;42.072;21.504;2024-02-23T09:28:14;16.73;;;9.18;;
80193;SDS011;69515;42.072;21.504;2024-02-23T09:30:40;13.85;;;6.40;;
80193;SDS011;69515;42.072;21.504;2024-02-23T09:33:06;9.15;;;5.15;;
80193;SDS011;69515;42.072;21.504;2024-02-23T09:35:33;9.25;;;5.85;;
80193;SDS011;69515;42.072;21.504;2024-02-23T09:37:59;10.75;;;6.28;;
80193;SDS011;69515;42.072;21.504;2024-02-23T09:40:26;14.70;;;6.90;;
80193;SDS011;69515;42.072;21.504;2024-02-23T09:43:00;9.65;;;6.45;;
80193;SDS011;69515;42.072;21.504;2024-02-23T09:45:27;8.77;;;5.93;;
80193;SDS011;69515;42.072;21.504;2024-02-23T09:47:54;13.25;;;7.10;;
80193;SDS011;69515;42.072;21.504;2024-02-23T09:50:22;10.93;;;5.82;;
80193;SDS011;69515;42.072;21.504;2024-02-23T09:52:49;18.75;;;7.30;;
80193;SDS011;69515;42.072;21.504;2024-02-23T09:55:20;10.80;;;6.13;;
80193;SDS011;69515;42.072;21.504;2024-02-23T09:57:47;11.52;;;5.63;;
80193;SDS011;69515;42.072;21.504;2024-02-23T10:00:34;10.77;;;5.75;;
80193;SDS011;69515;42.072;21.504;2024-02-23T10:03:02;15.85;;;5.68;;
80193;SDS011;69515;42.072;21.504;2024-02-23T10:05:36;11.20;;;4.68;;
80193;SDS011;69515;42.072;21.504;2024-02-23T10:08:03;10.20;;;4.70;;
80193;SDS011;69515;42.072;21.504;2024-02-23T10:10:30;8.60;;;5.13;;
80193;SDS011;69515;42.072;21.504;2024-02-23T10:12:59;10.15;;;4.90;;
80193;SDS011;69515;42.072;21.504;2024-02-23T10:15:25;10.73;;;5.18;;
80193;SDS011;69515;42.072;21.504;2024-02-23T10:17:52;10.88;;;4.70;;
80193;SDS011;69515;42.072;21.504;2024-02-23T10:20:19;8.88;;;4.75;;
80193;SDS011;69515;42.072;21.504;2024-02-23T10:22:45;8.65;;;5.60;;
80193;SDS011;69515;42.072;21.504;2024-02-23T10:25:13;9.80;;;5.72;;
80193;SDS011;69515;42.072;21.504;2024-02-23T10:27:43;9.00;;;4.28;;
80193;SDS011;69515;42.072;21.504;2024-02-23T10:30:09;8.70;;;5.30;;
80193;SDS011;69515;42.072;21.504;2024-02-23T10:32:40;9.07;;;5.63;;
80193;SDS011;69515;42.072;21.504;2024-02-23T10:35:09;9.98;;;4.93;;
80193;SDS011;69515;42.072;21.504;2024-02-23T10:37:37;9.30;;;4.97;;
80193;SDS011;69515;42.072;21.504;2024-02-23T10:40:03;7.85;;;3.40;;
80193;SDS011;69515;42.072;21.504;2024-02-23T10:42:35;6.28;;;3.83;;
80193;SDS011;69515;42.072;21.504;2024-02-23T10:45:02;9.57;;;4.60;;
80193;SDS011;69515;42.072;21.504;2024-02-23T10:47:39;4.97;;;2.85;;
80193;SDS011;69515;42.072;21.504;2024-02-23T10:50:12;8.15;;;3.13;;
80193;SDS011;69515;42.072;21.504;2024-02-23T10:52:42;6.47;;;3.00;;
80193;SDS011;69515;42.072;21.504;2024-02-23T10:55:09;5.93;;;2.95;;
80193;SDS011;69515;42.072;21.504;2024-02-23T10:57:36;5.85;;;2.72;;
80193;SDS011;69515;42.072;21.504;2024-02-23T11:00:07;5.75;;;2.92;;
80193;SDS011;69515;42.072;21.504;2024-02-23T11:02:43;5.53;;;2.38;;
80193;SDS011;69515;42.072;21.504;2024-02-23T11:05:09;5.75;;;2.30;;
80193;SDS011;69515;42.072;21.504;2024-02-23T11:07:40;5.28;;;2.47;;
80193;SDS011;69515;42.072;21.504;2024-02-23T11:10:07;10.45;;;2.28;;
80193;SDS011;69515;42.072;21.504;2024-02-23T11:12:34;7.28;;;2.55;;
80193;SDS011;69515;42.072;21.504;2024-02-23T11:15:02;10.20;;;3.35;;
80193;SDS011;69515;42.072;21.504;2024-02-23T11:17:32;10.98;;;2.58;;
80193;SDS011;69515;42.072;21.504;2024-02-23T11:20:02;7.03;;;2.85;;
80193;SDS011;69515;42.072;21.504;2024-02-23T11:22:36;5.28;;;2.50;;
80193;SDS011;69515;42.072;21.504;2024-02-23T11:25:04;11.00;;;9.70;;
80193;SDS011;69515;42.072;21.504;2024-02-23T11:27:32;5.78;;;2.95;;
80193;SDS011;69515;42.072;21.504;2024-02-23T11:30:12;4.18;;;2.30;;
80193;SDS011;69515;42.072;21.504;2024-02-23T11:32:51;6.30;;;3.33;;
80193;SDS011;69515;42.072;21.504;2024-02-23T11:35:34;3.90;;;1.90;;
80193;SDS011;69515;42.072;21.504;2024-02-23T11:38:09;10.20;;;6.70;;
80193;SDS011;69515;42.072;21.504;2024-02-23T11:40:57;4.15;;;2.08;;
80193;SDS011;69515;42.072;21.504;2024-02-23T11:43:46;28.58;;;20.92;;
80193;SDS011;69515;42.072;21.504;2024-02-23T11:46:15;29.73;;;22.25;;
80193;SDS011;69515;42.072;21.504;2024-02-23T11:48:42;6.20;;;2.20;;
80193;SDS011;69515;42.072;21.504;2024-02-23T11:51:09;6.40;;;2.75;;
80193;SDS011;69515;42.072;21.504;2024-02-23T11:53:36;6.30;;;3.25;;
80193;SDS011;69515;42.072;21.504;2024-02-23T11:56:04;7.32;;;2.33;;
80193;SDS011;69515;42.072;21.504;2024-02-23T11:58:33;6.30;;;1.95;;
80193;SDS011;69515;42.072;21.504;2024-02-23T12:04:28;2.67;;;1.23;;
80193;SDS011;69515;42.072;21.504;2024-02-23T12:09:48;7.20;;;3.80;;
80193;SDS011;69515;42.072;21.504;2024-02-23T12:12:14;4.40;;;2.03;;
80193;SDS011;69515;42.072;21.504;2024-02-23T12:14:40;4.13;;;1.50;;
80193;SDS011;69515;42.072;21.504;2024-02-23T12:17:07;3.22;;;1.58;;
80193;SDS011;69515;42.072;21.504;2024-02-23T12:19:39;7.63;;;3.05;;
80193;SDS011;69515;42.072;21.504;2024-02-23T12:22:06;5.03;;;1.50;;
80193;SDS011;69515;42.072;21.504;2024-02-23T12:24:32;16.08;;;2.05;;
80193;SDS011;69515;42.072;21.504;2024-02-23T12:27:00;11.50;;;3.95;;
80193;SDS011;69515;42.072;21.504;2024-02-23T12:29:26;3.83;;;1.90;;
80193;SDS011;69515;42.072;21.504;2024-02-23T12:32:14;5.45;;;1.60;;
80193;SDS011;69515;42.072;21.504;2024-02-23T12:34:39;3.60;;;1.63;;
80193;SDS011;69515;42.072;21.504;2024-02-23T12:37:05;3.72;;;1.20;;
80193;SDS011;69515;42.072;21.504;2024-02-23T12:39:32;2.97;;;1.27;;
80193;SDS011;69515;42.072;21.504;2024-02-23T12:41:58;3.75;;;1.50;;
80193;SDS011;69515;42.072;21.504;2024-02-23T12:44:24;3.55;;;1.67;;
80193;SDS011;69515;42.072;21.504;2024-02-23T12:46:50;3.15;;;1.33;;
80193;SDS011;69515;42.072;21.504;2024-02-23T12:49:16;10.18;;;2.67;;
80193;SDS011;69515;42.072;21.504;2024-02-23T12:51:42;6.03;;;1.55;;
80193;SDS011;69515;42.072;21.504;2024-02-23T12:54:09;6.97;;;2.15;;
80193;SDS011;69515;42.072;21.504;2024-02-23T12:56:35;5.80;;;1.70;;
80193;SDS011;69515;42.072;21.504;2024-02-23T12:59:01;3.42;;;1.40;;
80193;SDS011;69515;42.072;21.504;2024-02-23T13:01:27;5.05;;;1.60;;
80193;SDS011;69515;42.072;21.504;2024-02-23T13:03:54;17.17;;;2.83;;
80193;SDS011;69515;42.072;21.504;2024-02-23T13:06:21;67.43;;;7.97;;
80193;SDS011;69515;42.072;21.504;2024-02-23T13:08:48;11.88;;;2.80;;
80193;SDS011;69515;42.072;21.504;2024-02-23T13:11:14;8.85;;;1.80;;
80193;SDS011;69515;42.072;21.504;2024-02-23T13:13:40;11.30;;;2.45;;
80193;SDS011;69515;42.072;21.504;2024-02-23T13:16:07;4.35;;;1.60;;
80193;SDS011;69515;42.072;21.504;2024-02-23T13:18:33;3.67;;;1.55;;
80193;SDS011;69515;42.072;21.504;2024-02-23T13:21:00;5.75;;;1.67;;
80193;SDS011;69515;42.072;21.504;2024-02-23T13:23:26;5.10;;;1.90;;
80193;SDS011;69515;42.072;21.504;2024-02-23T13:25:52;3.90;;;1.73;;
80193;SDS011;69515;42.072;21.504;2024-02-23T13:28:19;4.57;;;1.88;;
80193;SDS011;69515;42.072;21.504;2024-02-23T13:30:45;4.28;;;2.22;;
80193;SDS011;69515;42.072;21.504;2024-02-23T13:33:11;5.90;;;2.67;;
80193;SDS011;69515;42.072;21.504;2024-02-23T13:35:37;4.70;;;1.92;;
80193;SDS011;69515;42.072;21.504;2024-02-23T13:38:04;5.38;;;2.00;;
80193;SDS011;69515;42.072;21.504;2024-02-23T13:40:31;3.42;;;1.70;;
80193;SDS011;69515;42.072;21.504;2024-02-23T13:42:57;4.47;;;1.88;;
80193;SDS011;69515;42.072;21.504;2024-02-23T13:45:23;4.20;;;1.98;;
80193;SDS011;69515;42.072;21.504;2024-02-23T13:47:57;5.45;;;1.80;;
80193;SDS011;69515;42.072;21.504;2024-02-23T13:50:23;3.55;;;1.80;;
80193;SDS011;69515;42.072;21.504;2024-02-23T13:52:50;3.47;;;1.80;;
80193;SDS011;69515;42.072;21.504;2024-02-23T13:55:17;3.90;;;1.75;;
80193;SDS011;69515;42.072;21.504;2024-02-23T13:57:46;3.17;;;1.80;;
80193;SDS011;69515;42.072;21.504;2024-02-23T14:00:13;4.00;;;2.10;;
80193;SDS011;69515;42.072;21.504;2024-02-23T14:02:39;3.15;;;1.63;;
80193;SDS011;69515;42.072;21.504;2024-02-23T14:05:06;4.00;;;1.85;;
80193;SDS011;69515;42.072;21.504;2024-02-23T14:07:33;4.30;;;2.10;;
80193;SDS011;69515;42.072;21.504;2024-02-23T14:09:59;4.13;;;2.17;;
80193;SDS011;69515;42.072;21.504;2024-02-23T14:12:26;3.75;;;1.95;;
80193;SDS011;69515;42.072;21.504;2024-02-23T14:14:53;3.80;;;2.10;;
80193;SDS011;69515;42.072;21.504;2024-02-23T14:17:19;3.30;;;1.70;;
80193;SDS011;69515;42.072;21.504;2024-02-23T14:19:45;3.30;;;1.80;;
80193;SDS011;69515;42.072;21.504;2024-02-23T14:22:11;8.90;;;2.53;;
80193;SDS011;69515;42.072;21.504;2024-02-23T14:24:38;4.95;;;2.60;;
80193;SDS011;69515;42.072;21.504;2024-02-23T14:27:05;5.97;;;2.47;;
80193;SDS011;69515;42.072;21.504;2024-02-23T14:29:32;4.80;;;2.38;;
80193;SDS011;69515;42.072;21.504;2024-02-23T14:31:59;4.80;;;2.75;;
80193;SDS011;69515;42.072;21.504;2024-02-23T14:34:26;5.38;;;2.63;;
80193;SDS011;69515;42.072;21.504;2024-02-23T14:36:52;6.80;;;3.00;;
80193;SDS011;69515;42.072;21.504;2024-02-23T14:39:18;5.63;;;3.03;;
80193;SDS011;69515;42.072;21.504;2024-02-23T14:41:46;5.38;;;3.22;;
80193;SDS011;69515;42.072;21.504;2024-02-23T14:44:13;6.75;;;3.40;;
80193;SDS011;69515;42.072;21.504;2024-02-23T14:46:39;7.70;;;3.65;;
80193;SDS011;69515;42.072;21.504;2024-02-23T14:49:06;7.47;;;4.07;;
80193;SDS011;69515;42.072;21.504;2024-02-23T14:51:32;5.88;;;3.95;;
80193;SDS011;69515;42.072;21.504;2024-02-23T14:54:00;6.00;;;3.83;;
80193;SDS011;69515;42.072;21.504;2024-02-23T14:56:29;9.60;;;3.67;;
80193;SDS011;69515;42.072;21.504;2024-02-23T14:58:56;6.38;;;3.42;;
80193;SDS011;69515;42.072;21.504;2024-02-23T15:01:22;6.10;;;4.00;;
80193;SDS011;69515;42.072;21.504;2024-02-23T15:03:48;6.70;;;3.60;;
80193;SDS011;69515;42.072;21.504;2024-02-23T15:06:15;5.30;;;3.50;;
80193;SDS011;69515;42.072;21.504;2024-02-23T15:08:43;8.00;;;4.28;;
80193;SDS011;69515;42.072;21.504;2024-02-23T15:11:09;13.07;;;7.85;;
80193;SDS011;69515;42.072;21.504;2024-02-23T15:13:35;16.88;;;7.90;;
80193;SDS011;69515;42.072;21.504;2024-02-23T15:16:01;8.40;;;5.00;;
80193;SDS011;69515;42.072;21.504;2024-02-23T15:18:27;7.03;;;3.78;;
80193;SDS011;69515;42.072;21.504;2024-02-23T15:20:54;6.85;;;3.67;;
80193;SDS011;69515;42.072;21.504;2024-02-23T15:23:21;7.93;;;4.68;;
80193;SDS011;69515;42.072;21.504;2024-02-23T15:25:49;9.77;;;4.50;;
80193;SDS011;69515;42.072;21.504;2024-02-23T15:28:15;10.55;;;5.30;;
80193;SDS011;69515;42.072;21.504;2024-02-23T15:30:48;8.40;;;4.53;;
80193;SDS011;69515;42.072;21.504;2024-02-23T15:33:14;9.18;;;5.07;;
80193;SDS011;69515;42.072;21.504;2024-02-23T15:35:40;12.10;;;5.95;;
80193;SDS011;69515;42.072;21.504;2024-02-23T15:38:07;8.90;;;4.75;;